Syringa, Idaho
Current Conditions -  °F | °C
As of 11:35 AM on Thursday 18 Dec 2014 (Local Time) from KGIC Reporting Station
Overcast Overcast  
Wind Chill: 37°   Ceiling: 6000
Heat Index: 41°   Visibility: 10mi
Dew Point: 34°   Wind: 6mph
Humidity: 74%   Direction: 70°ENE
Pressure: 30.04"   Gusts: NA
Location:  46.2989°N, 115.619°W
Report Text: KGIC 181935Z AUTO 07005KT 10SM SCT032 OVC060 05/01 A3004 RMK AO1 T00510009
Loading
Personal Weather Stations






























Interactive Weather Map New forecast layout! Learn more

10-Day Weather Forecast

Advertisements
Track Severe Weather on mobile